sensor_id;sensor_type;location;lat;lon;timestamp;temperature;humidity
46137;DHT22;31871;49.418;8.752;2022-09-29T00:01:14;10.30;99.90
46137;DHT22;31871;49.418;8.752;2022-09-29T00:03:41;10.20;99.90
46137;DHT22;31871;49.418;8.752;2022-09-29T00:06:12;10.20;99.90
46137;DHT22;31871;49.418;8.752;2022-09-29T00:08:40;10.20;99.90
46137;DHT22;31871;49.418;8.752;2022-09-29T00:11:09;10.20;99.90
46137;DHT22;31871;49.418;8.752;2022-09-29T00:13:35;10.20;99.90
46137;DHT22;31871;49.418;8.752;2022-09-29T00:16:02;10.10;99.90
46137;DHT22;31871;49.418;8.752;2022-09-29T00:18:29;10.10;99.90
46137;DHT22;31871;49.418;8.752;2022-09-29T00:21:16;10.10;99.90
46137;DHT22;31871;49.418;8.752;2022-09-29T00:23:44;10.20;99.90
46137;DHT22;31871;49.418;8.752;2022-09-29T00:26:17;10.20;99.90
46137;DHT22;31871;49.418;8.752;2022-09-29T00:29:01;10.10;99.90
46137;DHT22;31871;49.418;8.752;2022-09-29T00:31:32;10.10;99.90
46137;DHT22;31871;49.418;8.752;2022-09-29T00:33:58;10.00;99.90
46137;DHT22;31871;49.418;8.752;2022-09-29T00:36:25;10.00;99.90
46137;DHT22;31871;49.418;8.752;2022-09-29T00:38:54;10.00;99.90
46137;DHT22;31871;49.418;8.752;2022-09-29T00:41:30;10.00;99.90
46137;DHT22;31871;49.418;8.752;2022-09-29T00:44:01;10.00;99.90
46137;DHT22;31871;49.418;8.752;2022-09-29T00:47:00;10.00;99.90
46137;DHT22;31871;49.418;8.752;2022-09-29T00:49:46;10.00;99.90
46137;DHT22;31871;49.418;8.752;2022-09-29T00:52:34;10.00;99.90
46137;DHT22;31871;49.418;8.752;2022-09-29T00:55:18;9.90;99.90
46137;DHT22;31871;49.418;8.752;2022-09-29T00:57:57;9.90;99.90
46137;DHT22;31871;49.418;8.752;2022-09-29T01:00:24;9.90;99.90
46137;DHT22;31871;49.418;8.752;2022-09-29T01:03:11;9.90;99.90
46137;DHT22;31871;49.418;8.752;2022-09-29T01:05:41;9.90;99.90
46137;DHT22;31871;49.418;8.752;2022-09-29T01:08:16;9.90;99.90
46137;DHT22;31871;49.418;8.752;2022-09-29T01:10:46;9.90;99.90
46137;DHT22;31871;49.418;8.752;2022-09-29T01:13:13;9.90;99.90
46137;DHT22;31871;49.418;8.752;2022-09-29T01:15:39;9.90;99.90
46137;DHT22;31871;49.418;8.752;2022-09-29T01:18:05;9.80;99.90
46137;DHT22;31871;49.418;8.752;2022-09-29T01:20:32;9.70;99.90
46137;DHT22;31871;49.418;8.752;2022-09-29T01:32:05;9.60;99.90
46137;DHT22;31871;49.418;8.752;2022-09-29T01:43:05;9.90;99.90
46137;DHT22;31871;49.418;8.752;2022-09-29T01:45:35;9.90;99.90
46137;DHT22;31871;49.418;8.752;2022-09-29T01:48:09;9.90;99.90
46137;DHT22;31871;49.418;8.752;2022-09-29T01:50:42;9.90;99.90
46137;DHT22;31871;49.418;8.752;2022-09-29T01:53:19;9.90;99.90
46137;DHT22;31871;49.418;8.752;2022-09-29T01:55:49;9.80;99.90
46137;DHT22;31871;49.418;8.752;2022-09-29T01:58:23;9.80;99.90
46137;DHT22;31871;49.418;8.752;2022-09-29T02:00:56;9.70;99.90
46137;DHT22;31871;49.418;8.752;2022-09-29T02:06:37;9.70;99.90
46137;DHT22;31871;49.418;8.752;2022-09-29T02:09:11;9.60;99.90
46137;DHT22;31871;49.418;8.752;2022-09-29T02:11:38;9.70;99.90
46137;DHT22;31871;49.418;8.752;2022-09-29T02:14:14;9.60;99.90
46137;DHT22;31871;49.418;8.752;2022-09-29T02:16:48;9.60;99.90
46137;DHT22;31871;49.418;8.752;2022-09-29T02:19:23;9.40;99.90
46137;DHT22;31871;49.418;8.752;2022-09-29T02:21:50;9.40;99.90
46137;DHT22;31871;49.418;8.752;2022-09-29T02:24:19;9.40;99.90
46137;DHT22;31871;49.418;8.752;2022-09-29T02:26:46;9.40;99.90
46137;DHT22;31871;49.418;8.752;2022-09-29T02:29:12;9.50;99.90
46137;DHT22;31871;49.418;8.752;2022-09-29T02:31:39;9.60;99.90
46137;DHT22;31871;49.418;8.752;2022-09-29T02:34:07;9.50;99.90
46137;DHT22;31871;49.418;8.752;2022-09-29T02:36:46;9.50;99.90
46137;DHT22;31871;49.418;8.752;2022-09-29T02:45:29;9.40;99.90
46137;DHT22;31871;49.418;8.752;2022-09-29T02:51:20;9.50;99.90
46137;DHT22;31871;49.418;8.752;2022-09-29T02:57:45;9.40;99.90
46137;DHT22;31871;49.418;8.752;2022-09-29T03:02:30;9.30;99.90
46137;DHT22;31871;49.418;8.752;2022-09-29T03:04:56;9.30;99.90
46137;DHT22;31871;49.418;8.752;2022-09-29T03:07:22;9.30;99.90
46137;DHT22;31871;49.418;8.752;2022-09-29T03:09:47;9.30;99.90
46137;DHT22;31871;49.418;8.752;2022-09-29T03:12:13;9.30;99.90
46137;DHT22;31871;49.418;8.752;2022-09-29T03:14:38;9.30;99.90
46137;DHT22;31871;49.418;8.752;2022-09-29T03:17:04;9.30;99.90
46137;DHT22;31871;49.418;8.752;2022-09-29T03:19:30;9.30;99.90
46137;DHT22;31871;49.418;8.752;2022-09-29T03:21:55;9.30;99.90
46137;DHT22;31871;49.418;8.752;2022-09-29T03:24:21;9.30;99.90
46137;DHT22;31871;49.418;8.752;2022-09-29T03:26:46;9.30;99.90
46137;DHT22;31871;49.418;8.752;2022-09-29T03:29:12;9.30;99.90
46137;DHT22;31871;49.418;8.752;2022-09-29T03:31:40;9.30;99.90
46137;DHT22;31871;49.418;8.752;2022-09-29T03:34:06;9.30;99.90
46137;DHT22;31871;49.418;8.752;2022-09-29T03:36:31;9.20;99.90
46137;DHT22;31871;49.418;8.752;2022-09-29T03:38:57;9.30;99.90
46137;DHT22;31871;49.418;8.752;2022-09-29T03:41:23;9.20;99.90
46137;DHT22;31871;49.418;8.752;2022-09-29T03:43:51;9.30;99.90
46137;DHT22;31871;49.418;8.752;2022-09-29T03:46:17;9.30;99.90
46137;DHT22;31871;49.418;8.752;2022-09-29T03:48:43;9.30;99.90
46137;DHT22;31871;49.418;8.752;2022-09-29T03:51:08;9.30;99.90
46137;DHT22;31871;49.418;8.752;2022-09-29T03:53:37;9.30;99.90
46137;DHT22;31871;49.418;8.752;2022-09-29T03:56:03;9.30;99.90
46137;DHT22;31871;49.418;8.752;2022-09-29T03:58:29;9.30;99.90
46137;DHT22;31871;49.418;8.752;2022-09-29T04:00:54;9.40;99.90
46137;DHT22;31871;49.418;8.752;2022-09-29T04:03:20;9.50;99.90
46137;DHT22;31871;49.418;8.752;2022-09-29T04:05:46;9.50;99.90
46137;DHT22;31871;49.418;8.752;2022-09-29T04:08:13;9.50;99.90
46137;DHT22;31871;49.418;8.752;2022-09-29T04:10:39;9.50;99.90
46137;DHT22;31871;49.418;8.752;2022-09-29T04:13:05;9.60;99.90
46137;DHT22;31871;49.418;8.752;2022-09-29T04:15:31;9.50;99.90
46137;DHT22;31871;49.418;8.752;2022-09-29T04:17:57;9.50;99.90
46137;DHT22;31871;49.418;8.752;2022-09-29T04:20:23;9.50;99.90
46137;DHT22;31871;49.418;8.752;2022-09-29T04:22:48;9.40;99.90
46137;DHT22;31871;49.418;8.752;2022-09-29T04:25:14;9.40;99.90
46137;DHT22;31871;49.418;8.752;2022-09-29T04:27:42;9.30;99.90
46137;DHT22;31871;49.418;8.752;2022-09-29T04:30:08;9.40;99.90
46137;DHT22;31871;49.418;8.752;2022-09-29T04:32:34;9.40;99.90
46137;DHT22;31871;49.418;8.752;2022-09-29T04:35:00;9.30;99.90
46137;DHT22;31871;49.418;8.752;2022-09-29T04:37:25;9.10;99.90
46137;DHT22;31871;49.418;8.752;2022-09-29T04:39:52;9.20;99.90
46137;DHT22;31871;49.418;8.752;2022-09-29T04:42:19;9.20;99.90
46137;DHT22;31871;49.418;8.752;2022-09-29T04:44:45;9.20;99.90
46137;DHT22;31871;49.418;8.752;2022-09-29T04:47:10;9.20;99.90
46137;DHT22;31871;49.418;8.752;2022-09-29T04:49:36;9.20;99.90
46137;DHT22;31871;49.418;8.752;2022-09-29T04:52:05;9.20;99.90
46137;DHT22;31871;49.418;8.752;2022-09-29T04:54:34;9.30;99.90
46137;DHT22;31871;49.418;8.752;2022-09-29T04:57:00;9.30;99.90
46137;DHT22;31871;49.418;8.752;2022-09-29T04:59:26;9.30;99.90
46137;DHT22;31871;49.418;8.752;2022-09-29T05:01:52;9.40;99.90
46137;DHT22;31871;49.418;8.752;2022-09-29T05:04:17;9.30;99.90
46137;DHT22;31871;49.418;8.752;2022-09-29T05:06:44;9.40;99.90
46137;DHT22;31871;49.418;8.752;2022-09-29T05:09:10;9.40;99.90
46137;DHT22;31871;49.418;8.752;2022-09-29T05:11:35;9.40;99.90
46137;DHT22;31871;49.418;8.752;2022-09-29T05:14:01;9.40;99.90
46137;DHT22;31871;49.418;8.752;2022-09-29T05:16:27;9.40;99.90
46137;DHT22;31871;49.418;8.752;2022-09-29T05:18:52;9.40;99.90
46137;DHT22;31871;49.418;8.752;2022-09-29T05:21:18;9.40;99.90
46137;DHT22;31871;49.418;8.752;2022-09-29T05:23:46;9.40;99.90
46137;DHT22;31871;49.418;8.752;2022-09-29T05:26:12;9.40;99.90
46137;DHT22;31871;49.418;8.752;2022-09-29T05:28:42;9.40;99.90
46137;DHT22;31871;49.418;8.752;2022-09-29T05:31:08;9.40;99.90
46137;DHT22;31871;49.418;8.752;2022-09-29T05:33:36;9.40;99.90
46137;DHT22;31871;49.418;8.752;2022-09-29T05:36:09;9.40;99.90
46137;DHT22;31871;49.418;8.752;2022-09-29T05:38:35;9.40;99.90
46137;DHT22;31871;49.418;8.752;2022-09-29T05:41:06;9.40;99.90
46137;DHT22;31871;49.418;8.752;2022-09-29T05:43:32;9.40;99.90
46137;DHT22;31871;49.418;8.752;2022-09-29T05:46:01;9.40;99.90
46137;DHT22;31871;49.418;8.752;2022-09-29T05:48:27;9.50;99.90
46137;DHT22;31871;49.418;8.752;2022-09-29T05:50:57;9.50;99.90
46137;DHT22;31871;49.418;8.752;2022-09-29T05:53:23;9.50;99.90
46137;DHT22;31871;49.418;8.752;2022-09-29T05:55:49;9.60;99.90
46137;DHT22;31871;49.418;8.752;2022-09-29T05:58:15;9.60;99.90
46137;DHT22;31871;49.418;8.752;2022-09-29T06:00:41;9.60;99.90
46137;DHT22;31871;49.418;8.752;2022-09-29T06:03:07;9.60;99.90
46137;DHT22;31871;49.418;8.752;2022-09-29T06:05:36;9.60;99.90
46137;DHT22;31871;49.418;8.752;2022-09-29T06:08:02;9.80;99.90
46137;DHT22;31871;49.418;8.752;2022-09-29T06:10:28;9.80;99.90
46137;DHT22;31871;49.418;8.752;2022-09-29T06:12:54;9.80;99.90
46137;DHT22;31871;49.418;8.752;2022-09-29T06:15:19;9.90;99.90
46137;DHT22;31871;49.418;8.752;2022-09-29T06:17:54;9.90;99.90
46137;DHT22;31871;49.418;8.752;2022-09-29T06:20:20;9.90;99.90
46137;DHT22;31871;49.418;8.752;2022-09-29T06:22:45;9.90;99.90
46137;DHT22;31871;49.418;8.752;2022-09-29T06:25:12;9.90;99.90
46137;DHT22;31871;49.418;8.752;2022-09-29T06:27:37;9.90;99.90
46137;DHT22;31871;49.418;8.752;2022-09-29T06:30:03;9.90;99.90
46137;DHT22;31871;49.418;8.752;2022-09-29T06:32:29;9.90;99.90
46137;DHT22;31871;49.418;8.752;2022-09-29T06:34:54;9.90;99.90
46137;DHT22;31871;49.418;8.752;2022-09-29T06:37:42;9.90;99.90
46137;DHT22;31871;49.418;8.752;2022-09-29T06:40:09;9.80;99.90
46137;DHT22;31871;49.418;8.752;2022-09-29T06:42:35;9.80;99.90
46137;DHT22;31871;49.418;8.752;2022-09-29T06:45:01;9.80;99.90
46137;DHT22;31871;49.418;8.752;2022-09-29T06:47:26;9.80;99.90
46137;DHT22;31871;49.418;8.752;2022-09-29T06:49:52;9.80;99.90
46137;DHT22;31871;49.418;8.752;2022-09-29T06:52:18;9.80;99.90
46137;DHT22;31871;49.418;8.752;2022-09-29T06:54:44;9.80;99.90
46137;DHT22;31871;49.418;8.752;2022-09-29T06:57:11;9.80;99.90
46137;DHT22;31871;49.418;8.752;2022-09-29T06:59:38;9.90;99.90
46137;DHT22;31871;49.418;8.752;2022-09-29T07:02:03;10.00;99.90
46137;DHT22;31871;49.418;8.752;2022-09-29T07:04:29;10.00;99.90
46137;DHT22;31871;49.418;8.752;2022-09-29T07:06:54;10.00;99.90
46137;DHT22;31871;49.418;8.752;2022-09-29T07:09:20;10.00;99.90
46137;DHT22;31871;49.418;8.752;2022-09-29T07:11:49;10.00;99.90
46137;DHT22;31871;49.418;8.752;2022-09-29T07:14:17;10.00;99.90
46137;DHT22;31871;49.418;8.752;2022-09-29T07:16:42;10.00;99.90
46137;DHT22;31871;49.418;8.752;2022-09-29T07:19:08;10.10;99.90
46137;DHT22;31871;49.418;8.752;2022-09-29T07:21:34;10.10;99.90
46137;DHT22;31871;49.418;8.752;2022-09-29T07:24:00;10.10;99.90
46137;DHT22;31871;49.418;8.752;2022-09-29T07:26:26;10.10;99.90
46137;DHT22;31871;49.418;8.752;2022-09-29T07:28:53;10.20;99.90
46137;DHT22;31871;49.418;8.752;2022-09-29T07:31:20;10.20;99.90
46137;DHT22;31871;49.418;8.752;2022-09-29T07:33:47;10.20;99.90
46137;DHT22;31871;49.418;8.752;2022-09-29T07:36:16;10.30;99.90
46137;DHT22;31871;49.418;8.752;2022-09-29T07:38:48;10.30;99.90
46137;DHT22;31871;49.418;8.752;2022-09-29T07:41:15;10.40;99.90
46137;DHT22;31871;49.418;8.752;2022-09-29T07:43:41;10.40;99.90
46137;DHT22;31871;49.418;8.752;2022-09-29T07:46:07;10.40;99.90
46137;DHT22;31871;49.418;8.752;2022-09-29T07:48:34;10.40;99.90
46137;DHT22;31871;49.418;8.752;2022-09-29T07:51:12;10.40;99.90
46137;DHT22;31871;49.418;8.752;2022-09-29T07:53:38;10.50;99.90
46137;DHT22;31871;49.418;8.752;2022-09-29T07:56:09;10.50;99.90
46137;DHT22;31871;49.418;8.752;2022-09-29T07:58:36;10.50;99.90
46137;DHT22;31871;49.418;8.752;2022-09-29T08:01:03;10.50;99.90
46137;DHT22;31871;49.418;8.752;2022-09-29T08:03:31;10.50;99.90
46137;DHT22;31871;49.418;8.752;2022-09-29T08:05:56;10.50;99.90
46137;DHT22;31871;49.418;8.752;2022-09-29T08:08:22;10.60;99.90
46137;DHT22;31871;49.418;8.752;2022-09-29T08:10:48;10.60;99.90
46137;DHT22;31871;49.418;8.752;2022-09-29T08:13:13;10.60;99.90
46137;DHT22;31871;49.418;8.752;2022-09-29T08:15:39;10.70;99.90
46137;DHT22;31871;49.418;8.752;2022-09-29T08:18:04;10.70;99.90
46137;DHT22;31871;49.418;8.752;2022-09-29T08:20:30;10.80;99.90
46137;DHT22;31871;49.418;8.752;2022-09-29T08:22:57;10.70;99.90
46137;DHT22;31871;49.418;8.752;2022-09-29T08:25:23;10.80;99.90
46137;DHT22;31871;49.418;8.752;2022-09-29T08:27:50;10.80;99.90
46137;DHT22;31871;49.418;8.752;2022-09-29T08:30:16;10.80;99.90
46137;DHT22;31871;49.418;8.752;2022-09-29T08:32:42;10.90;99.90
46137;DHT22;31871;49.418;8.752;2022-09-29T08:35:08;10.90;99.90
46137;DHT22;31871;49.418;8.752;2022-09-29T08:37:34;10.90;99.90
46137;DHT22;31871;49.418;8.752;2022-09-29T08:39:59;10.90;99.90
46137;DHT22;31871;49.418;8.752;2022-09-29T08:42:42;10.90;99.90
46137;DHT22;31871;49.418;8.752;2022-09-29T08:45:14;10.90;99.90
46137;DHT22;31871;49.418;8.752;2022-09-29T08:47:49;11.00;99.90
46137;DHT22;31871;49.418;8.752;2022-09-29T08:50:29;11.00;99.90
46137;DHT22;31871;49.418;8.752;2022-09-29T08:53:04;11.00;99.90
46137;DHT22;31871;49.418;8.752;2022-09-29T08:58:02;11.10;99.90
46137;DHT22;31871;49.418;8.752;2022-09-29T09:00:55;11.10;99.90
46137;DHT22;31871;49.418;8.752;2022-09-29T09:06:34;11.20;99.90
46137;DHT22;31871;49.418;8.752;2022-09-29T09:09:13;11.20;99.90
46137;DHT22;31871;49.418;8.752;2022-09-29T09:17:02;11.20;99.90
46137;DHT22;31871;49.418;8.752;2022-09-29T09:22:27;11.20;99.90
46137;DHT22;31871;49.418;8.752;2022-09-29T09:33:32;11.50;99.90
46137;DHT22;31871;49.418;8.752;2022-09-29T09:36:04;11.60;99.90
46137;DHT22;31871;49.418;8.752;2022-09-29T09:38:49;11.60;99.90
46137;DHT22;31871;49.418;8.752;2022-09-29T09:41:20;11.70;99.90
46137;DHT22;31871;49.418;8.752;2022-09-29T09:43:50;11.70;99.90
46137;DHT22;31871;49.418;8.752;2022-09-29T09:46:41;11.70;99.90
46137;DHT22;31871;49.418;8.752;2022-09-29T09:52:46;12.10;99.90
46137;DHT22;31871;49.418;8.752;2022-09-29T09:55:25;12.50;99.90
46137;DHT22;31871;49.418;8.752;2022-09-29T10:00:42;13.30;99.90
46137;DHT22;31871;49.418;8.752;2022-09-29T10:03:09;13.60;99.90
46137;DHT22;31871;49.418;8.752;2022-09-29T10:05:46;13.80;99.90
46137;DHT22;31871;49.418;8.752;2022-09-29T10:10:47;14.10;99.90
46137;DHT22;31871;49.418;8.752;2022-09-29T10:13:13;14.00;99.90
46137;DHT22;31871;49.418;8.752;2022-09-29T10:20:39;13.80;99.90
46137;DHT22;31871;49.418;8.752;2022-09-29T10:23:35;13.90;99.90
46137;DHT22;31871;49.418;8.752;2022-09-29T10:26:18;13.90;99.90
46137;DHT22;31871;49.418;8.752;2022-09-29T10:28:53;13.90;99.90
46137;DHT22;31871;49.418;8.752;2022-09-29T10:31:25;14.00;99.90
46137;DHT22;31871;49.418;8.752;2022-09-29T10:33:57;13.90;99.90
46137;DHT22;31871;49.418;8.752;2022-09-29T10:36:25;13.90;99.90
46137;DHT22;31871;49.418;8.752;2022-09-29T10:38:53;13.90;99.90
46137;DHT22;31871;49.418;8.752;2022-09-29T10:41:19;13.80;99.90
46137;DHT22;31871;49.418;8.752;2022-09-29T10:43:46;13.80;99.90
46137;DHT22;31871;49.418;8.752;2022-09-29T10:46:35;13.80;99.90
46137;DHT22;31871;49.418;8.752;2022-09-29T10:49:09;13.80;99.90
46137;DHT22;31871;49.418;8.752;2022-09-29T10:51:38;13.90;99.90
46137;DHT22;31871;49.418;8.752;2022-09-29T10:54:08;13.70;99.90
46137;DHT22;31871;49.418;8.752;2022-09-29T10:56:35;13.60;99.90
46137;DHT22;31871;49.418;8.752;2022-09-29T10:59:02;13.40;99.90
46137;DHT22;31871;49.418;8.752;2022-09-29T11:01:30;13.40;99.90
46137;DHT22;31871;49.418;8.752;2022-09-29T11:03:57;13.30;99.90
46137;DHT22;31871;49.418;8.752;2022-09-29T11:06:32;13.40;99.90
46137;DHT22;31871;49.418;8.752;2022-09-29T11:09:03;13.60;99.90
46137;DHT22;31871;49.418;8.752;2022-09-29T11:11:35;13.50;99.90
46137;DHT22;31871;49.418;8.752;2022-09-29T11:14:01;13.30;99.90
46137;DHT22;31871;49.418;8.752;2022-09-29T11:16:35;13.10;99.90
46137;DHT22;31871;49.418;8.752;2022-09-29T11:19:07;12.90;99.90
46137;DHT22;31871;49.418;8.752;2022-09-29T11:29:45;13.00;99.90
46137;DHT22;31871;49.418;8.752;2022-09-29T11:32:33;13.20;99.90
46137;DHT22;31871;49.418;8.752;2022-09-29T11:38:10;13.60;99.90
46137;DHT22;31871;49.418;8.752;2022-09-29T11:45:52;13.30;99.90
46137;DHT22;31871;49.418;8.752;2022-09-29T11:48:25;13.30;99.90
46137;DHT22;31871;49.418;8.752;2022-09-29T11:51:09;13.30;99.90
46137;DHT22;31871;49.418;8.752;2022-09-29T11:57:06;13.20;99.90
46137;DHT22;31871;49.418;8.752;2022-09-29T12:02:31;13.20;99.90
46137;DHT22;31871;49.418;8.752;2022-09-29T12:05:16;13.20;99.90
46137;DHT22;31871;49.418;8.752;2022-09-29T12:07:48;13.20;99.90
46137;DHT22;31871;49.418;8.752;2022-09-29T12:12:52;13.20;99.90
46137;DHT22;31871;49.418;8.752;2022-09-29T12:15:32;13.30;99.90
46137;DHT22;31871;49.418;8.752;2022-09-29T12:18:07;13.40;99.90
46137;DHT22;31871;49.418;8.752;2022-09-29T12:20:37;13.40;99.90
46137;DHT22;31871;49.418;8.752;2022-09-29T12:23:10;13.50;99.90
46137;DHT22;31871;49.418;8.752;2022-09-29T12:25:40;13.70;99.90
46137;DHT22;31871;49.418;8.752;2022-09-29T12:28:13;13.70;99.90
46137;DHT22;31871;49.418;8.752;2022-09-29T12:30:56;13.70;99.90
46137;DHT22;31871;49.418;8.752;2022-09-29T12:33:40;13.70;99.90
46137;DHT22;31871;49.418;8.752;2022-09-29T12:42:19;13.80;99.90
46137;DHT22;31871;49.418;8.752;2022-09-29T12:47:46;13.60;99.90
46137;DHT22;31871;49.418;8.752;2022-09-29T12:50:34;13.60;99.90
46137;DHT22;31871;49.418;8.752;2022-09-29T12:53:21;13.70;99.90
46137;DHT22;31871;49.418;8.752;2022-09-29T12:58:25;13.70;99.90
46137;DHT22;31871;49.418;8.752;2022-09-29T13:01:08;13.70;99.90
46137;DHT22;31871;49.418;8.752;2022-09-29T13:12:06;14.10;99.90
46137;DHT22;31871;49.418;8.752;2022-09-29T13:17:39;14.00;99.90
46137;DHT22;31871;49.418;8.752;2022-09-29T13:28:45;14.00;99.90
46137;DHT22;31871;49.418;8.752;2022-09-29T13:31:16;14.10;99.90
46137;DHT22;31871;49.418;8.752;2022-09-29T13:33:51;14.10;99.90
46137;DHT22;31871;49.418;8.752;2022-09-29T13:38:56;14.20;99.90
46137;DHT22;31871;49.418;8.752;2022-09-29T13:54:33;14.20;99.90
46137;DHT22;31871;49.418;8.752;2022-09-29T13:59:38;14.20;99.90
46137;DHT22;31871;49.418;8.752;2022-09-29T14:04:53;14.10;99.90
46137;DHT22;31871;49.418;8.752;2022-09-29T14:07:45;14.10;99.90
46137;DHT22;31871;49.418;8.752;2022-09-29T14:10:21;14.20;99.90
46137;DHT22;31871;49.418;8.752;2022-09-29T14:12:54;14.20;99.90
46137;DHT22;31871;49.418;8.752;2022-09-29T14:15:25;14.10;99.90
46137;DHT22;31871;49.418;8.752;2022-09-29T14:17:57;14.30;99.90
46137;DHT22;31871;49.418;8.752;2022-09-29T14:20:30;14.30;99.90
46137;DHT22;31871;49.418;8.752;2022-09-29T14:23:00;14.30;99.90
46137;DHT22;31871;49.418;8.752;2022-09-29T14:25:47;14.30;99.90
46137;DHT22;31871;49.418;8.752;2022-09-29T14:28:18;14.20;99.90
46137;DHT22;31871;49.418;8.752;2022-09-29T14:30:51;14.30;99.90
46137;DHT22;31871;49.418;8.752;2022-09-29T14:33:24;14.30;99.90
46137;DHT22;31871;49.418;8.752;2022-09-29T14:38:29;14.10;99.90
46137;DHT22;31871;49.418;8.752;2022-09-29T14:49:24;14.00;99.90
46137;DHT22;31871;49.418;8.752;2022-09-29T15:00:23;14.10;99.90
46137;DHT22;31871;49.418;8.752;2022-09-29T15:02:54;14.20;99.90
46137;DHT22;31871;49.418;8.752;2022-09-29T15:05:29;14.20;99.90
46137;DHT22;31871;49.418;8.752;2022-09-29T15:07:56;14.30;99.90
46137;DHT22;31871;49.418;8.752;2022-09-29T15:10:37;14.30;99.90
46137;DHT22;31871;49.418;8.752;2022-09-29T15:13:37;14.30;99.90
46137;DHT22;31871;49.418;8.752;2022-09-29T15:16:10;14.40;99.90
46137;DHT22;31871;49.418;8.752;2022-09-29T15:24:02;14.60;99.90
46137;DHT22;31871;49.418;8.752;2022-09-29T15:26:34;14.60;99.90
46137;DHT22;31871;49.418;8.752;2022-09-29T15:29:04;14.60;99.90
46137;DHT22;31871;49.418;8.752;2022-09-29T15:31:31;14.60;99.90
46137;DHT22;31871;49.418;8.752;2022-09-29T15:34:01;14.50;99.90
46137;DHT22;31871;49.418;8.752;2022-09-29T15:36:35;14.40;99.90
46137;DHT22;31871;49.418;8.752;2022-09-29T15:42:04;14.10;99.90
46137;DHT22;31871;49.418;8.752;2022-09-29T15:44:35;14.20;99.90
46137;DHT22;31871;49.418;8.752;2022-09-29T15:47:01;14.30;99.90
46137;DHT22;31871;49.418;8.752;2022-09-29T15:49:28;14.30;99.90
46137;DHT22;31871;49.418;8.752;2022-09-29T15:52:05;14.20;99.90
46137;DHT22;31871;49.418;8.752;2022-09-29T15:54:38;14.10;99.90
46137;DHT22;31871;49.418;8.752;2022-09-29T16:05:35;13.50;99.90
46137;DHT22;31871;49.418;8.752;2022-09-29T16:08:21;13.50;99.90
46137;DHT22;31871;49.418;8.752;2022-09-29T16:10:54;13.50;99.90
46137;DHT22;31871;49.418;8.752;2022-09-29T16:13:23;13.70;99.90
46137;DHT22;31871;49.418;8.752;2022-09-29T16:15:54;13.90;99.90
46137;DHT22;31871;49.418;8.752;2022-09-29T16:18:42;13.90;99.90
46137;DHT22;31871;49.418;8.752;2022-09-29T16:21:20;13.90;99.90
46137;DHT22;31871;49.418;8.752;2022-09-29T16:26:49;13.90;99.90
46137;DHT22;31871;49.418;8.752;2022-09-29T16:31:45;13.70;99.90
46137;DHT22;31871;49.418;8.752;2022-09-29T16:39:14;13.70;99.90
46137;DHT22;31871;49.418;8.752;2022-09-29T16:41:40;13.80;99.90
46137;DHT22;31871;49.418;8.752;2022-09-29T16:47:11;13.70;99.90
46137;DHT22;31871;49.418;8.752;2022-09-29T16:52:45;13.70;99.90
46137;DHT22;31871;49.418;8.752;2022-09-29T16:57:51;13.50;99.90
46137;DHT22;31871;49.418;8.752;2022-09-29T17:00:18;13.50;99.90
46137;DHT22;31871;49.418;8.752;2022-09-29T17:02:44;13.50;99.90
46137;DHT22;31871;49.418;8.752;2022-09-29T17:05:09;13.60;99.90
46137;DHT22;31871;49.418;8.752;2022-09-29T17:07:39;13.50;99.90
46137;DHT22;31871;49.418;8.752;2022-09-29T17:10:06;13.50;99.90
46137;DHT22;31871;49.418;8.752;2022-09-29T17:12:38;13.40;99.90
46137;DHT22;31871;49.418;8.752;2022-09-29T17:15:05;13.30;99.90
46137;DHT22;31871;49.418;8.752;2022-09-29T17:17:31;13.40;99.90
46137;DHT22;31871;49.418;8.752;2022-09-29T17:19:58;13.50;99.90
46137;DHT22;31871;49.418;8.752;2022-09-29T17:22:32;13.50;99.90
46137;DHT22;31871;49.418;8.752;2022-09-29T17:24:59;13.30;99.90
46137;DHT22;31871;49.418;8.752;2022-09-29T17:27:25;13.20;99.90
46137;DHT22;31871;49.418;8.752;2022-09-29T17:30:12;13.10;99.90
46137;DHT22;31871;49.418;8.752;2022-09-29T17:32:43;13.00;99.90
46137;DHT22;31871;49.418;8.752;2022-09-29T17:35:15;12.90;99.90
46137;DHT22;31871;49.418;8.752;2022-09-29T17:37:42;12.90;99.90
46137;DHT22;31871;49.418;8.752;2022-09-29T17:40:19;12.80;99.90
46137;DHT22;31871;49.418;8.752;2022-09-29T17:42:46;12.80;99.90
46137;DHT22;31871;49.418;8.752;2022-09-29T17:45:14;12.80;99.90
46137;DHT22;31871;49.418;8.752;2022-09-29T17:47:44;12.80;99.90
46137;DHT22;31871;49.418;8.752;2022-09-29T17:50:33;12.80;99.90
46137;DHT22;31871;49.418;8.752;2022-09-29T17:53:01;12.70;99.90
46137;DHT22;31871;49.418;8.752;2022-09-29T17:55:29;12.70;99.90
46137;DHT22;31871;49.418;8.752;2022-09-29T17:57:55;12.70;99.90
46137;DHT22;31871;49.418;8.752;2022-09-29T18:00:32;12.60;99.90
46137;DHT22;31871;49.418;8.752;2022-09-29T18:02:58;12.70;99.90
46137;DHT22;31871;49.418;8.752;2022-09-29T18:05:26;12.80;99.90
46137;DHT22;31871;49.418;8.752;2022-09-29T18:07:53;12.80;99.90
46137;DHT22;31871;49.418;8.752;2022-09-29T18:12:52;12.90;99.90
46137;DHT22;31871;49.418;8.752;2022-09-29T18:15:18;12.80;99.90
46137;DHT22;31871;49.418;8.752;2022-09-29T18:17:44;12.80;99.90
46137;DHT22;31871;49.418;8.752;2022-09-29T18:20:14;12.80;99.90
46137;DHT22;31871;49.418;8.752;2022-09-29T18:22:40;12.70;99.90
46137;DHT22;31871;49.418;8.752;2022-09-29T18:25:08;12.70;99.90
46137;DHT22;31871;49.418;8.752;2022-09-29T18:27:34;12.60;99.90
46137;DHT22;31871;49.418;8.752;2022-09-29T18:30:23;12.70;99.90
46137;DHT22;31871;49.418;8.752;2022-09-29T18:32:49;12.70;99.90
46137;DHT22;31871;49.418;8.752;2022-09-29T18:35:23;12.70;99.90
46137;DHT22;31871;49.418;8.752;2022-09-29T18:37:49;12.70;99.90
46137;DHT22;31871;49.418;8.752;2022-09-29T18:40:16;12.70;99.90
46137;DHT22;31871;49.418;8.752;2022-09-29T18:42:43;12.70;99.90
46137;DHT22;31871;49.418;8.752;2022-09-29T18:45:11;12.60;99.90
46137;DHT22;31871;49.418;8.752;2022-09-29T18:47:42;12.60;99.90
46137;DHT22;31871;49.418;8.752;2022-09-29T18:50:19;12.60;99.90
46137;DHT22;31871;49.418;8.752;2022-09-29T18:52:46;12.60;99.90
46137;DHT22;31871;49.418;8.752;2022-09-29T18:55:12;12.30;99.90
46137;DHT22;31871;49.418;8.752;2022-09-29T18:57:38;12.20;99.90
46137;DHT22;31871;49.418;8.752;2022-09-29T19:00:06;12.20;99.90
46137;DHT22;31871;49.418;8.752;2022-09-29T19:02:35;12.20;99.90
46137;DHT22;31871;49.418;8.752;2022-09-29T19:05:02;12.20;99.90
46137;DHT22;31871;49.418;8.752;2022-09-29T19:07:28;12.20;99.90
46137;DHT22;31871;49.418;8.752;2022-09-29T19:09:53;12.20;99.90
46137;DHT22;31871;49.418;8.752;2022-09-29T19:12:19;12.30;99.90
46137;DHT22;31871;49.418;8.752;2022-09-29T19:14:51;12.30;99.90
46137;DHT22;31871;49.418;8.752;2022-09-29T19:17:18;12.30;99.90
46137;DHT22;31871;49.418;8.752;2022-09-29T19:19:47;12.30;99.90
46137;DHT22;31871;49.418;8.752;2022-09-29T19:22:13;12.40;99.90